sensor_id;sensor_type;location;lat;lon;timestamp;pressure;altitude;pressure_sealevel;temperature;humidity
18795;BME280;29610;49.022;12.114;2023-07-24T00:00:11;97167.75;;;22.02;100.00
18795;BME280;29610;49.022;12.114;2023-07-24T00:02:40;97166.78;;;21.79;100.00
18795;BME280;29610;49.022;12.114;2023-07-24T00:05:09;97158.44;;;21.86;100.00
18795;BME280;29610;49.022;12.114;2023-07-24T00:07:38;97157.00;;;21.63;100.00
18795;BME280;29610;49.022;12.114;2023-07-24T00:10:07;97139.25;;;21.57;100.00
18795;BME280;29610;49.022;12.114;2023-07-24T00:12:37;97126.44;;;21.23;100.00
18795;BME280;29610;49.022;12.114;2023-07-24T00:15:07;97125.78;;;20.94;100.00
18795;BME280;29610;49.022;12.114;2023-07-24T00:17:36;97110.44;;;20.90;100.00
18795;BME280;29610;49.022;12.114;2023-07-24T00:20:07;97095.03;;;20.89;100.00
18795;BME280;29610;49.022;12.114;2023-07-24T00:22:36;97084.88;;;20.68;100.00
18795;BME280;29610;49.022;12.114;2023-07-24T00:25:05;97088.09;;;20.49;100.00
18795;BME280;29610;49.022;12.114;2023-07-24T00:27:34;97079.81;;;20.49;100.00
18795;BME280;29610;49.022;12.114;2023-07-24T00:30:06;97077.47;;;20.48;100.00
18795;BME280;29610;49.022;12.114;2023-07-24T00:32:35;97070.34;;;20.57;100.00
18795;BME280;29610;49.022;12.114;2023-07-24T00:35:06;97071.59;;;20.39;100.00
18795;BME280;29610;49.022;12.114;2023-07-24T00:37:35;97071.22;;;20.33;100.00
18795;BME280;29610;49.022;12.114;2023-07-24T00:40:06;97074.81;;;20.16;100.00
18795;BME280;29610;49.022;12.114;2023-07-24T00:42:35;97082.28;;;20.26;100.00
18795;BME280;29610;49.022;12.114;2023-07-24T00:45:06;97087.34;;;20.42;100.00
18795;BME280;29610;49.022;12.114;2023-07-24T00:47:36;97107.06;;;20.47;100.00
18795;BME280;29610;49.022;12.114;2023-07-24T00:50:07;97108.63;;;20.52;100.00
18795;BME280;29610;49.022;12.114;2023-07-24T00:52:36;97114.91;;;20.59;100.00
18795;BME280;29610;49.022;12.114;2023-07-24T00:55:07;97128.69;;;20.59;100.00
18795;BME280;29610;49.022;12.114;2023-07-24T00:57:36;97125.53;;;20.61;100.00
18795;BME280;29610;49.022;12.114;2023-07-24T01:00:08;97122.78;;;20.64;100.00
18795;BME280;29610;49.022;12.114;2023-07-24T01:02:37;97114.50;;;20.54;100.00
18795;BME280;29610;49.022;12.114;2023-07-24T01:05:07;97106.63;;;20.52;100.00
18795;BME280;29610;49.022;12.114;2023-07-24T01:07:37;97092.81;;;20.56;100.00
18795;BME280;29610;49.022;12.114;2023-07-24T01:10:07;97089.25;;;20.59;100.00
18795;BME280;29610;49.022;12.114;2023-07-24T01:12:41;97088.50;;;20.58;100.00
18795;BME280;29610;49.022;12.114;2023-07-24T01:15:21;97096.78;;;20.44;100.00
18795;BME280;29610;49.022;12.114;2023-07-24T01:17:59;97118.75;;;20.79;100.00
18795;BME280;29610;49.022;12.114;2023-07-24T01:20:30;97136.56;;;20.64;100.00
18795;BME280;29610;49.022;12.114;2023-07-24T01:23:23;97157.88;;;20.64;100.00
18795;BME280;29610;49.022;12.114;2023-07-24T01:25:59;97169.75;;;20.36;100.00
18795;BME280;29610;49.022;12.114;2023-07-24T01:28:30;97158.66;;;20.61;100.00
18795;BME280;29610;49.022;12.114;2023-07-24T01:30:59;97155.09;;;20.74;100.00
18795;BME280;29610;49.022;12.114;2023-07-24T01:33:28;97160.91;;;21.04;100.00
18795;BME280;29610;49.022;12.114;2023-07-24T01:36:02;97176.34;;;20.81;100.00
18795;BME280;29610;49.022;12.114;2023-07-24T01:38:34;97168.41;;;20.93;100.00
18795;BME280;29610;49.022;12.114;2023-07-24T01:41:04;97162.44;;;21.09;100.00
18795;BME280;29610;49.022;12.114;2023-07-24T01:43:34;97157.09;;;20.56;100.00
18795;BME280;29610;49.022;12.114;2023-07-24T01:46:03;97133.47;;;20.48;100.00
18795;BME280;29610;49.022;12.114;2023-07-24T01:48:33;97107.47;;;20.35;100.00
18795;BME280;29610;49.022;12.114;2023-07-24T01:51:02;97123.19;;;20.52;100.00
18795;BME280;29610;49.022;12.114;2023-07-24T01:53:31;97120.44;;;20.52;100.00
18795;BME280;29610;49.022;12.114;2023-07-24T01:55:59;97107.06;;;20.44;100.00
18795;BME280;29610;49.022;12.114;2023-07-24T01:58:30;97116.16;;;20.09;100.00
18795;BME280;29610;49.022;12.114;2023-07-24T02:00:59;97114.22;;;20.13;100.00
18795;BME280;29610;49.022;12.114;2023-07-24T02:03:28;97104.38;;;19.98;100.00
18795;BME280;29610;49.022;12.114;2023-07-24T02:05:57;97094.94;;;20.02;100.00
18795;BME280;29610;49.022;12.114;2023-07-24T02:08:27;97106.72;;;20.17;100.00
18795;BME280;29610;49.022;12.114;2023-07-24T02:10:56;97116.16;;;20.26;100.00
18795;BME280;29610;49.022;12.114;2023-07-24T02:13:25;97137.03;;;20.34;100.00
18795;BME280;29610;49.022;12.114;2023-07-24T02:15:55;97142.19;;;20.29;100.00
18795;BME280;29610;49.022;12.114;2023-07-24T02:18:24;97149.66;;;20.36;100.00
18795;BME280;29610;49.022;12.114;2023-07-24T02:20:53;97121.56;;;20.72;100.00
18795;BME280;29610;49.022;12.114;2023-07-24T02:23:21;97093.88;;;20.83;100.00
18795;BME280;29610;49.022;12.114;2023-07-24T02:25:51;97087.47;;;21.03;100.00
18795;BME280;29610;49.022;12.114;2023-07-24T02:28:20;97075.75;;;20.85;100.00
18795;BME280;29610;49.022;12.114;2023-07-24T02:30:52;97097.06;;;20.78;100.00
18795;BME280;29610;49.022;12.114;2023-07-24T02:33:27;97092.06;;;20.55;100.00
18795;BME280;29610;49.022;12.114;2023-07-24T02:35:56;97093.28;;;20.40;100.00
18795;BME280;29610;49.022;12.114;2023-07-24T02:38:24;97099.94;;;20.53;100.00
18795;BME280;29610;49.022;12.114;2023-07-24T02:40:53;97094.47;;;20.39;100.00
18795;BME280;29610;49.022;12.114;2023-07-24T02:43:22;97090.56;;;20.26;100.00
18795;BME280;29610;49.022;12.114;2023-07-24T02:45:50;97082.66;;;20.28;100.00
18795;BME280;29610;49.022;12.114;2023-07-24T02:48:19;97080.28;;;20.30;100.00
18795;BME280;29610;49.022;12.114;2023-07-24T02:50:49;97067.66;;;20.36;100.00
18795;BME280;29610;49.022;12.114;2023-07-24T02:53:18;97070.44;;;20.25;100.00
18795;BME280;29610;49.022;12.114;2023-07-24T02:55:47;97068.50;;;20.01;100.00
18795;BME280;29610;49.022;12.114;2023-07-24T02:58:16;97066.56;;;19.95;100.00
18795;BME280;29610;49.022;12.114;2023-07-24T03:00:45;97061.03;;;19.98;100.00
18795;BME280;29610;49.022;12.114;2023-07-24T03:03:17;97055.56;;;19.81;100.00
18795;BME280;29610;49.022;12.114;2023-07-24T03:05:46;97045.72;;;19.73;100.00
18795;BME280;29610;49.022;12.114;2023-07-24T03:08:16;97044.56;;;19.67;100.00
18795;BME280;29610;49.022;12.114;2023-07-24T03:10:44;97034.72;;;19.62;100.00
18795;BME280;29610;49.022;12.114;2023-07-24T03:13:15;97030.41;;;19.58;100.00
18795;BME280;29610;49.022;12.114;2023-07-24T03:15:51;97031.53;;;19.25;100.00
18795;BME280;29610;49.022;12.114;2023-07-24T03:18:20;97030.75;;;19.25;100.00
18795;BME280;29610;49.022;12.114;2023-07-24T03:20:50;97015.78;;;19.01;100.00
18795;BME280;29610;49.022;12.114;2023-07-24T03:23:20;97018.56;;;19.08;100.00
18795;BME280;29610;49.022;12.114;2023-07-24T03:25:49;97015.03;;;19.15;100.00
18795;BME280;29610;49.022;12.114;2023-07-24T03:28:17;97018.56;;;19.19;100.00
18795;BME280;29610;49.022;12.114;2023-07-24T03:30:46;97015.41;;;19.27;100.00
18795;BME280;29610;49.022;12.114;2023-07-24T03:33:16;97018.59;;;19.33;100.00
18795;BME280;29610;49.022;12.114;2023-07-24T03:35:44;97013.84;;;19.44;100.00
18795;BME280;29610;49.022;12.114;2023-07-24T03:38:13;97024.09;;;19.57;100.00
18795;BME280;29610;49.022;12.114;2023-07-24T03:40:43;97022.88;;;19.76;100.00
18795;BME280;29610;49.022;12.114;2023-07-24T03:43:12;97030.34;;;19.82;100.00
18795;BME280;29610;49.022;12.114;2023-07-24T03:45:40;97027.53;;;20.03;100.00
18795;BME280;29610;49.022;12.114;2023-07-24T03:48:09;97027.91;;;20.09;100.00
18795;BME280;29610;49.022;12.114;2023-07-24T03:50:40;97046.84;;;20.17;100.00
18795;BME280;29610;49.022;12.114;2023-07-24T03:53:09;97046.44;;;20.22;100.00
18795;BME280;29610;49.022;12.114;2023-07-24T03:55:38;97069.25;;;20.30;100.00
18795;BME280;29610;49.022;12.114;2023-07-24T03:58:08;97073.56;;;20.34;100.00
18795;BME280;29610;49.022;12.114;2023-07-24T04:00:37;97074.69;;;20.51;100.00
18795;BME280;29610;49.022;12.114;2023-07-24T04:03:05;97101.03;;;20.70;100.00
18795;BME280;29610;49.022;12.114;2023-07-24T04:05:36;97128.22;;;20.85;100.00
18795;BME280;29610;49.022;12.114;2023-07-24T04:08:04;97140.78;;;20.97;100.00
18795;BME280;29610;49.022;12.114;2023-07-24T04:10:33;97133.69;;;20.99;100.00
18795;BME280;29610;49.022;12.114;2023-07-24T04:13:02;97115.50;;;21.02;100.00
18795;BME280;29610;49.022;12.114;2023-07-24T04:15:32;97092.19;;;21.06;100.00
18795;BME280;29610;49.022;12.114;2023-07-24T04:18:01;97051.88;;;21.16;100.00
18795;BME280;29610;49.022;12.114;2023-07-24T04:20:30;97009.97;;;21.24;100.00
18795;BME280;29610;49.022;12.114;2023-07-24T04:22:58;96955.00;;;21.37;100.00
18795;BME280;29610;49.022;12.114;2023-07-24T04:25:27;96909.97;;;20.92;100.00
18795;BME280;29610;49.022;12.114;2023-07-24T04:27:56;96904.06;;;20.90;100.00
18795;BME280;29610;49.022;12.114;2023-07-24T04:30:25;96920.81;;;21.20;100.00
18795;BME280;29610;49.022;12.114;2023-07-24T04:32:55;96906.91;;;21.27;100.00
18795;BME280;29610;49.022;12.114;2023-07-24T04:35:24;96884.00;;;21.30;100.00
18795;BME280;29610;49.022;12.114;2023-07-24T04:37:52;96907.31;;;21.29;100.00
18795;BME280;29610;49.022;12.114;2023-07-24T04:40:21;96925.78;;;21.36;100.00
18795;BME280;29610;49.022;12.114;2023-07-24T04:42:50;96956.47;;;21.48;100.00
18795;BME280;29610;49.022;12.114;2023-07-24T04:45:19;96948.53;;;21.54;100.00
18795;BME280;29610;49.022;12.114;2023-07-24T04:47:50;96955.34;;;21.42;100.00
18795;BME280;29610;49.022;12.114;2023-07-24T04:50:20;96943.34;;;21.56;100.00
18795;BME280;29610;49.022;12.114;2023-07-24T04:52:49;96948.56;;;21.50;100.00
18795;BME280;29610;49.022;12.114;2023-07-24T04:55:17;96950.88;;;21.55;100.00
18795;BME280;29610;49.022;12.114;2023-07-24T04:57:46;96950.56;;;21.46;100.00
18795;BME280;29610;49.022;12.114;2023-07-24T05:00:15;96961.59;;;21.50;100.00
18795;BME280;29610;49.022;12.114;2023-07-24T05:02:44;96953.94;;;21.64;100.00
18795;BME280;29610;49.022;12.114;2023-07-24T05:05:13;96956.28;;;21.66;100.00
18795;BME280;29610;49.022;12.114;2023-07-24T05:07:43;96962.72;;;21.56;100.00
18795;BME280;29610;49.022;12.114;2023-07-24T05:10:11;96976.03;;;21.68;100.00
18795;BME280;29610;49.022;12.114;2023-07-24T05:12:41;96984.25;;;21.75;100.00
18795;BME280;29610;49.022;12.114;2023-07-24T05:15:10;96962.88;;;21.83;100.00
18795;BME280;29610;49.022;12.114;2023-07-24T05:17:39;96965.25;;;21.81;100.00
18795;BME280;29610;49.022;12.114;2023-07-24T05:20:10;96958.53;;;21.82;100.00
18795;BME280;29610;49.022;12.114;2023-07-24T05:22:39;96962.78;;;21.49;100.00
18795;BME280;29610;49.022;12.114;2023-07-24T05:25:09;96962.84;;;21.42;100.00
18795;BME280;29610;49.022;12.114;2023-07-24T05:27:38;96958.59;;;21.30;100.00
18795;BME280;29610;49.022;12.114;2023-07-24T05:30:07;96952.72;;;21.28;100.00
18795;BME280;29610;49.022;12.114;2023-07-24T05:32:36;96952.38;;;21.19;100.00
18795;BME280;29610;49.022;12.114;2023-07-24T05:35:06;96948.00;;;21.25;100.00
18795;BME280;29610;49.022;12.114;2023-07-24T05:37:35;96939.53;;;21.43;100.00
18795;BME280;29610;49.022;12.114;2023-07-24T05:40:05;96933.03;;;21.63;100.00
18795;BME280;29610;49.022;12.114;2023-07-24T05:42:36;96929.34;;;21.77;100.00
18795;BME280;29610;49.022;12.114;2023-07-24T05:45:09;96912.72;;;22.11;100.00
18795;BME280;29610;49.022;12.114;2023-07-24T05:47:39;96916.75;;;22.36;100.00
18795;BME280;29610;49.022;12.114;2023-07-24T05:50:09;96914.00;;;22.33;100.00
18795;BME280;29610;49.022;12.114;2023-07-24T05:52:37;96902.88;;;22.66;100.00
18795;BME280;29610;49.022;12.114;2023-07-24T05:55:10;96909.97;;;22.94;100.00
18795;BME280;29610;49.022;12.114;2023-07-24T05:57:40;96911.28;;;23.09;100.00
18795;BME280;29610;49.022;12.114;2023-07-24T06:00:10;96902.78;;;22.96;100.00
18795;BME280;29610;49.022;12.114;2023-07-24T06:02:42;96909.47;;;23.26;100.00
18795;BME280;29610;49.022;12.114;2023-07-24T06:05:12;96906.75;;;23.18;100.00
18795;BME280;29610;49.022;12.114;2023-07-24T06:07:41;96909.59;;;23.61;100.00
18795;BME280;29610;49.022;12.114;2023-07-24T06:10:10;96905.31;;;23.99;100.00
18795;BME280;29610;49.022;12.114;2023-07-24T06:12:40;96915.81;;;23.88;100.00
18795;BME280;29610;49.022;12.114;2023-07-24T06:15:11;96906.78;;;24.23;100.00
18795;BME280;29610;49.022;12.114;2023-07-24T06:17:43;96910.22;;;24.47;100.00
18795;BME280;29610;49.022;12.114;2023-07-24T06:20:13;96892.34;;;24.48;100.00
18795;BME280;29610;49.022;12.114;2023-07-24T06:22:43;96886.53;;;24.42;100.00
18795;BME280;29610;49.022;12.114;2023-07-24T06:25:12;96884.59;;;24.23;100.00
18795;BME280;29610;49.022;12.114;2023-07-24T06:27:42;96889.88;;;24.34;100.00
18795;BME280;29610;49.022;12.114;2023-07-24T06:30:11;96883.00;;;24.58;100.00
18795;BME280;29610;49.022;12.114;2023-07-24T06:32:43;96894.66;;;24.69;100.00
18795;BME280;29610;49.022;12.114;2023-07-24T06:35:11;96896.38;;;24.63;100.00
18795;BME280;29610;49.022;12.114;2023-07-24T06:37:40;96894.19;;;24.54;100.00
18795;BME280;29610;49.022;12.114;2023-07-24T06:40:10;96887.59;;;24.65;100.00
18795;BME280;29610;49.022;12.114;2023-07-24T06:42:39;96888.84;;;24.80;100.00
18795;BME280;29610;49.022;12.114;2023-07-24T06:45:09;96888.94;;;25.24;100.00
18795;BME280;29610;49.022;12.114;2023-07-24T06:47:38;96879.78;;;25.56;100.00
18795;BME280;29610;49.022;12.114;2023-07-24T06:50:08;96885.75;;;25.70;100.00
18795;BME280;29610;49.022;12.114;2023-07-24T06:52:37;96891.59;;;25.60;100.00
18795;BME280;29610;49.022;12.114;2023-07-24T06:55:07;96884.56;;;25.84;100.00
18795;BME280;29610;49.022;12.114;2023-07-24T06:57:36;96882.47;;;25.88;100.00
18795;BME280;29610;49.022;12.114;2023-07-24T07:00:07;96870.44;;;26.20;100.00
18795;BME280;29610;49.022;12.114;2023-07-24T07:02:40;96885.72;;;26.28;100.00
18795;BME280;29610;49.022;12.114;2023-07-24T07:05:09;96881.06;;;26.62;100.00
18795;BME280;29610;49.022;12.114;2023-07-24T07:07:37;96884.16;;;25.98;100.00
18795;BME280;29610;49.022;12.114;2023-07-24T07:10:07;96891.47;;;26.21;100.00
18795;BME280;29610;49.022;12.114;2023-07-24T07:12:36;96880.91;;;26.28;100.00
18795;BME280;29610;49.022;12.114;2023-07-24T07:15:07;96889.63;;;26.43;100.00
18795;BME280;29610;49.022;12.114;2023-07-24T07:17:35;96891.94;;;26.32;100.00
18795;BME280;29610;49.022;12.114;2023-07-24T07:20:07;96920.78;;;26.25;100.00
18795;BME280;29610;49.022;12.114;2023-07-24T07:22:36;96921.31;;;26.20;100.00
18795;BME280;29610;49.022;12.114;2023-07-24T07:25:06;96909.34;;;26.23;100.00
18795;BME280;29610;49.022;12.114;2023-07-24T07:27:34;96887.19;;;26.57;100.00
18795;BME280;29610;49.022;12.114;2023-07-24T07:30:05;96866.13;;;26.81;100.00
18795;BME280;29610;49.022;12.114;2023-07-24T07:32:35;96872.34;;;27.10;100.00
18795;BME280;29610;49.022;12.114;2023-07-24T07:35:07;96889.88;;;26.98;100.00
18795;BME280;29610;49.022;12.114;2023-07-24T07:37:36;96902.72;;;26.83;100.00
18795;BME280;29610;49.022;12.114;2023-07-24T07:40:06;96899.31;;;26.63;100.00
18795;BME280;29610;49.022;12.114;2023-07-24T07:42:36;96909.91;;;26.43;100.00
18795;BME280;29610;49.022;12.114;2023-07-24T07:45:09;96911.22;;;26.26;100.00
18795;BME280;29610;49.022;12.114;2023-07-24T07:47:38;96918.88;;;26.10;100.00
18795;BME280;29610;49.022;12.114;2023-07-24T07:50:09;96942.69;;;26.11;100.00
18795;BME280;29610;49.022;12.114;2023-07-24T07:52:38;96968.13;;;26.25;100.00
18795;BME280;29610;49.022;12.114;2023-07-24T07:55:08;96992.94;;;26.07;100.00
18795;BME280;29610;49.022;12.114;2023-07-24T07:57:38;97017.06;;;25.81;100.00
18795;BME280;29610;49.022;12.114;2023-07-24T08:00:08;97017.94;;;25.62;100.00
18795;BME280;29610;49.022;12.114;2023-07-24T08:02:38;97042.78;;;25.37;100.00
18795;BME280;29610;49.022;12.114;2023-07-24T08:05:10;97035.69;;;25.17;100.00
18795;BME280;29610;49.022;12.114;2023-07-24T08:07:47;97045.06;;;25.07;100.00
18795;BME280;29610;49.022;12.114;2023-07-24T08:10:18;97043.56;;;25.02;100.00
18795;BME280;29610;49.022;12.114;2023-07-24T08:12:47;97035.84;;;24.94;100.00
18795;BME280;29610;49.022;12.114;2023-07-24T08:15:16;97042.84;;;24.82;100.00
18795;BME280;29610;49.022;12.114;2023-07-24T08:17:44;97046.47;;;24.79;100.00
18795;BME280;29610;49.022;12.114;2023-07-24T08:20:15;97052.00;;;24.60;100.00
18795;BME280;29610;49.022;12.114;2023-07-24T08:22:43;97060.84;;;24.35;100.00
18795;BME280;29610;49.022;12.114;2023-07-24T08:25:12;97067.72;;;24.07;100.00
18795;BME280;29610;49.022;12.114;2023-07-24T08:27:42;97059.09;;;23.79;100.00
18795;BME280;29610;49.022;12.114;2023-07-24T08:30:31;97070.47;;;23.61;100.00
18795;BME280;29610;49.022;12.114;2023-07-24T08:33:00;97063.34;;;23.37;100.00
18795;BME280;29610;49.022;12.114;2023-07-24T08:35:30;97066.09;;;23.37;100.00
18795;BME280;29610;49.022;12.114;2023-07-24T08:37:59;97061.44;;;23.31;100.00
18795;BME280;29610;49.022;12.114;2023-07-24T08:40:27;97059.16;;;23.22;100.00
18795;BME280;29610;49.022;12.114;2023-07-24T08:42:57;97054.84;;;23.21;100.00
18795;BME280;29610;49.022;12.114;2023-07-24T08:45:26;97072.06;;;23.36;100.00
18795;BME280;29610;49.022;12.114;2023-07-24T08:47:56;97057.31;;;23.42;100.00
18795;BME280;29610;49.022;12.114;2023-07-24T08:50:30;97050.03;;;23.52;100.00
18795;BME280;29610;49.022;12.114;2023-07-24T08:53:01;97042.13;;;23.50;100.00
18795;BME280;29610;49.022;12.114;2023-07-24T08:55:30;97035.69;;;23.57;100.00
18795;BME280;29610;49.022;12.114;2023-07-24T08:57:59;97033.38;;;23.75;100.00
18795;BME280;29610;49.022;12.114;2023-07-24T09:00:28;97028.16;;;23.80;100.00
18795;BME280;29610;49.022;12.114;2023-07-24T09:02:57;97037.41;;;24.16;100.00
18795;BME280;29610;49.022;12.114;2023-07-24T09:05:26;97035.19;;;24.27;100.00
18795;BME280;29610;49.022;12.114;2023-07-24T09:07:56;97037.84;;;24.54;100.00
18795;BME280;29610;49.022;12.114;2023-07-24T09:10:26;97026.66;;;24.77;100.00
18795;BME280;29610;49.022;12.114;2023-07-24T09:12:56;97012.75;;;25.13;100.00
18795;BME280;29610;49.022;12.114;2023-07-24T09:15:24;97007.13;;;25.16;100.00
18795;BME280;29610;49.022;12.114;2023-07-24T09:17:53;96983.31;;;25.31;100.00
18795;BME280;29610;49.022;12.114;2023-07-24T09:20:22;96968.47;;;25.38;100.00
18795;BME280;29610;49.022;12.114;2023-07-24T09:22:55;96950.28;;;25.01;100.00
18795;BME280;29610;49.022;12.114;2023-07-24T09:25:44;96936.97;;;24.93;100.00
18795;BME280;29610;49.022;12.114;2023-07-24T09:28:16;96958.88;;;24.91;100.00
18795;BME280;29610;49.022;12.114;2023-07-24T09:30:53;96954.94;;;24.72;100.00
18795;BME280;29610;49.022;12.114;2023-07-24T09:33:23;96942.19;;;24.75;100.00
18795;BME280;29610;49.022;12.114;2023-07-24T09:35:59;96948.19;;;24.73;100.00
18795;BME280;29610;49.022;12.114;2023-07-24T09:38:29;96933.63;;;24.66;100.00
18795;BME280;29610;49.022;12.114;2023-07-24T09:41:01;96937.66;;;24.81;100.00
18795;BME280;29610;49.022;12.114;2023-07-24T09:43:30;96914.94;;;24.86;100.00
18795;BME280;29610;49.022;12.114;2023-07-24T09:46:08;96927.25;;;25.33;100.00
18795;BME280;29610;49.022;12.114;2023-07-24T09:48:38;96921.13;;;25.70;100.00
18795;BME280;29610;49.022;12.114;2023-07-24T09:51:29;96908.13;;;26.49;100.00
18795;BME280;29610;49.022;12.114;2023-07-24T09:54:10;96891.44;;;27.12;100.00
18795;BME280;29610;49.022;12.114;2023-07-24T09:56:44;96880.78;;;28.22;100.00
18795;BME280;29610;49.022;12.114;2023-07-24T09:59:22;96861.00;;;29.08;100.00
18795;BME280;29610;49.022;12.114;2023-07-24T10:01:53;96852.66;;;29.98;100.00
18795;BME280;29610;49.022;12.114;2023-07-24T10:04:22;96833.47;;;30.84;100.00
18795;BME280;29610;49.022;12.114;2023-07-24T10:06:53;96827.28;;;31.51;100.00
18795;BME280;29610;49.022;12.114;2023-07-24T10:09:24;96828.38;;;31.91;93.47
18795;BME280;29610;49.022;12.114;2023-07-24T10:11:57;96828.09;;;31.80;93.88
18795;BME280;29610;49.022;12.114;2023-07-24T10:14:27;96827.09;;;31.92;92.04
18795;BME280;29610;49.022;12.114;2023-07-24T10:16:57;96824.03;;;31.67;95.95
18795;BME280;29610;49.022;12.114;2023-07-24T10:19:36;96818.78;;;31.60;93.70
18795;BME280;29610;49.022;12.114;2023-07-24T10:22:06;96807.75;;;31.56;87.85
18795;BME280;29610;49.022;12.114;2023-07-24T10:24:38;96814.25;;;31.62;87.09
18795;BME280;29610;49.022;12.114;2023-07-24T10:27:09;96811.22;;;31.89;85.87
18795;BME280;29610;49.022;12.114;2023-07-24T10:29:38;96807.13;;;31.90;86.19
18795;BME280;29610;49.022;12.114;2023-07-24T10:32:17;96809.13;;;32.77;85.68
18795;BME280;29610;49.022;12.114;2023-07-24T10:34:57;96814.56;;;33.95;74.06
18795;BME280;29610;49.022;12.114;2023-07-24T10:37:34;96810.41;;;34.42;71.11
18795;BME280;29610;49.022;12.114;2023-07-24T10:40:06;96830.44;;;34.75;70.12
18795;BME280;29610;49.022;12.114;2023-07-24T10:42:35;96830.91;;;35.53;63.15
18795;BME280;29610;49.022;12.114;2023-07-24T10:45:07;96826.84;;;36.51;56.96
18795;BME280;29610;49.022;12.114;2023-07-24T10:47:37;96833.50;;;37.03;53.70
18795;BME280;29610;49.022;12.114;2023-07-24T10:50:08;96825.25;;;36.28;55.86
18795;BME280;29610;49.022;12.114;2023-07-24T10:52:37;96829.66;;;36.84;52.46
18795;BME280;29610;49.022;12.114;2023-07-24T10:55:08;96831.63;;;36.01;55.46
18795;BME280;29610;49.022;12.114;2023-07-24T10:57:37;96816.88;;;35.75;50.79
18795;BME280;29610;49.022;12.114;2023-07-24T11:00:08;96831.00;;;35.69;48.85
18795;BME280;29610;49.022;12.114;2023-07-24T11:02:37;96821.63;;;34.99;50.05
18795;BME280;29610;49.022;12.114;2023-07-24T11:05:07;96818.63;;;34.46;52.52
18795;BME280;29610;49.022;12.114;2023-07-24T11:07:36;96815.19;;;34.05;53.11
18795;BME280;29610;49.022;12.114;2023-07-24T11:10:16;96810.72;;;33.73;55.59
18795;BME280;29610;49.022;12.114;2023-07-24T11:12:48;96826.78;;;33.47;57.95
18795;BME280;29610;49.022;12.114;2023-07-24T11:15:24;96820.84;;;33.45;60.10
18795;BME280;29610;49.022;12.114;2023-07-24T11:17:56;96807.75;;;33.22;58.94
18795;BME280;29610;49.022;12.114;2023-07-24T11:20:25;96799.56;;;33.04;59.23
18795;BME280;29610;49.022;12.114;2023-07-24T11:22:58;96792.94;;;32.72;57.86
18795;BME280;29610;49.022;12.114;2023-07-24T11:25:28;96801.19;;;32.90;59.41
18795;BME280;29610;49.022;12.114;2023-07-24T11:27:57;96800.69;;;32.92;58.68
18795;BME280;29610;49.022;12.114;2023-07-24T11:30:26;96789.81;;;32.85;59.04
18795;BME280;29610;49.022;12.114;2023-07-24T11:32:57;96786.50;;;32.86;58.87
18795;BME280;29610;49.022;12.114;2023-07-24T11:35:28;96802.16;;;32.72;58.92
18795;BME280;29610;49.022;12.114;2023-07-24T11:37:58;96797.38;;;32.29;60.20
18795;BME280;29610;49.022;12.114;2023-07-24T11:40:38;96805.63;;;31.66;62.64
18795;BME280;29610;49.022;12.114;2023-07-24T11:43:15;96794.13;;;31.16;65.55
18795;BME280;29610;49.022;12.114;2023-07-24T11:45:45;96786.72;;;30.72;73.29
18795;BME280;29610;49.022;12.114;2023-07-24T11:48:16;96789.75;;;30.59;77.76
18795;BME280;29610;49.022;12.114;2023-07-24T11:50:47;96803.25;;;30.37;85.07
18795;BME280;29610;49.022;12.114;2023-07-24T11:53:21;96801.59;;;30.22;83.50
18795;BME280;29610;49.022;12.114;2023-07-24T11:55:54;96802.88;;;30.02;87.74
18795;BME280;29610;49.022;12.114;2023-07-24T11:58:28;96811.78;;;29.83;93.85
18795;BME280;29610;49.022;12.114;2023-07-24T12:00:58;96806.81;;;29.87;88.62
18795;BME280;29610;49.022;12.114;2023-07-24T12:03:28;96811.78;;;29.74;95.32
18795;BME280;29610;49.022;12.114;2023-07-24T12:05:58;96810.84;;;29.50;93.32
18795;BME280;29610;49.022;12.114;2023-07-24T12:08:33;96807.25;;;29.31;100.00
18795;BME280;29610;49.022;12.114;2023-07-24T12:11:03;96804.25;;;28.99;100.00
18795;BME280;29610;49.022;12.114;2023-07-24T12:13:32;96811.34;;;28.82;100.00
18795;BME280;29610;49.022;12.114;2023-07-24T12:16:01;96801.03;;;28.60;100.00
18795;BME280;29610;49.022;12.114;2023-07-24T12:18:30;96815.00;;;28.60;100.00
18795;BME280;29610;49.022;12.114;2023-07-24T12:20:59;96811.56;;;28.56;100.00
18795;BME280;29610;49.022;12.114;2023-07-24T12:23:32;96799.84;;;28.40;100.00
18795;BME280;29610;49.022;12.114;2023-07-24T12:26:02;96802.69;;;28.49;100.00
18795;BME280;29610;49.022;12.114;2023-07-24T12:28:31;96814.53;;;28.53;100.00
18795;BME280;29610;49.022;12.114;2023-07-24T12:31:01;96806.19;;;28.71;100.00
18795;BME280;29610;49.022;12.114;2023-07-24T12:33:32;96814.44;;;28.75;100.00
18795;BME280;29610;49.022;12.114;2023-07-24T12:36:01;96819.84;;;29.09;100.00
18795;BME280;29610;49.022;12.114;2023-07-24T12:38:31;96824.03;;;29.31;100.00
18795;BME280;29610;49.022;12.114;2023-07-24T12:41:00;96820.44;;;29.22;100.00
18795;BME280;29610;49.022;12.114;2023-07-24T12:43:30;96816.88;;;28.54;100.00
18795;BME280;29610;49.022;12.114;2023-07-24T12:45:59;96837.63;;;27.58;100.00
18795;BME280;29610;49.022;12.114;2023-07-24T12:48:28;96871.22;;;27.08;100.00
18795;BME280;29610;49.022;12.114;2023-07-24T12:50:59;96917.63;;;26.11;100.00
18795;BME280;29610;49.022;12.114;2023-07-24T12:53:28;96946.69;;;25.81;100.00
18795;BME280;29610;49.022;12.114;2023-07-24T12:56:10;96960.63;;;25.17;100.00